Nearby METAR Reports

 

KMTN - Baltimore/Martin, Maryland, USA
Distance from station: SSE 8mi, 13km
Updated: Fri, 01-Aug-2014 9:45pm EDT
Overcast
Overcast
 Wind from calm
Wind: Calm
Temperature: 72°F , 22°C
Dew Point: 68°F , 20°C
Humidity: 88%
Barometer: 30.19 inHg , 1022.4 hPa
Clouds: Overcast
Visibility: 10 miles , 16 km
Cloud details: Overcast 5000 ft
2014/08/02 01:45 KMTN 020145Z 00000KT 10SM OVC050 22/20 A3019 RMK LAST
KDMH - Baltimore/Dwntwn, Maryland, USA
Distance from station: SW 12mi, 19km
Updated: Fri, 01-Aug-2014 9:54pm EDT

 
Temperature: 73°F , 23°C
Dew Point: 63°F , 17°C
Humidity: 69%
Barometer: 30.18 inHg , 1022 hPa
2014/08/02 01:54 KDMH 020154Z AUTO 23/17 A3018 RMK AO1 SLP219 T02330172
 
KBWI - Balto/Wash Intl, Maryland, USA
Distance from station: SSW 20mi, 33km
Updated: Fri, 01-Aug-2014 9:54pm EDT
Overcast
Overcast
 Wind from E
Wind: E 6 mph , 9 km/h
Temperature: 73°F , 23°C
Dew Point: 64°F , 18°C
Humidity: 74%
Barometer: 30.17 inHg , 1021.7 hPa
Clouds: Overcast
Visibility: 10 miles , 16 km
Cloud details: Few Clouds 3200 ft
Partly cloudy 5500 ft
Partly cloudy 12000 ft
Overcast 14000 ft
2014/08/02 01:54 KBWI 020154Z 10005KT 10SM FEW032 SCT055 SCT120 OVC140 23/18 A3017 RMK AO2 SLP215 T02280178
KDMW - Carroll Cnty, Maryland, USA
Distance from station: WNW 30mi, 48km
Updated: Fri, 01-Aug-2014 10:00pm EDT
Mostly cloudy
Mostly cloudy
 Wind from calm
Wind: Calm
Temperature: 72°F , 22°C
Dew Point: 70°F , 21°C
Humidity: 94%
Barometer: 30.20 inHg , 1022.7 hPa
Clouds: Mostly cloudy
Visibility: 10 miles , 16 km
Cloud details: Mostly cloudy 3500 ft
Mostly cloudy 4300 ft
2014/08/02 02:00 KDMW 020200Z AUTO 00000KT 10SM BKN035 BKN043 22/21 A3020 RMK AO2
 
KNAK - Annapolis/Naval, Maryland, USA
Distance from station: S 30mi, 48km
Updated: Fri, 01-Aug-2014 9:54pm EDT
Few Clouds
Few Clouds
 Wind from SE
Wind: SE 8 mph , 13 km/h
Temperature: 73°F , 23°C
Dew Point: 66°F , 19°C
Humidity: 78%
Barometer: 30.18 inHg , 1022 hPa
Clouds: Few Clouds
Visibility: 10 miles , 16 km
Cloud details: Few Clouds 2600 ft
2014/08/02 01:54 KNAK 020154Z AUTO 13007KT 10SM FEW026 23/19 A3018 RMK AO2 SLP221 T02330189
KW29 - Stevensville, Maryland, USA
Distance from station: SSE 31mi, 50km
Updated: Fri, 01-Aug-2014 10:02pm EDT

 Wind from ESE
Wind: ESE 3 mph , 6 km/h
Temperature: 72°F , 22°C
Dew Point: 64°F , 18°C
Humidity: 78%
Barometer: 30.18 inHg , 1022 hPa
Visibility: 10 miles , 16 km
2014/08/02 02:02 KW29 020202Z AUTO 11003KT 10SM 22/18 A3018 RMK AO1
 
KCGS - College Park, Maryland, USA
Distance from station: SW 38mi, 61km
Updated: Fri, 01-Aug-2014 10:00pm EDT
Mostly cloudy
Mostly cloudy
 Wind from calm
Wind: Calm
Temperature: 72°F , 22°C
Dew Point: 64°F , 18°C
Humidity: 78%
Barometer: 30.17 inHg , 1021.7 hPa
Clouds: Mostly cloudy
Visibility: 10 miles , 16 km
Cloud details: Partly cloudy 5000 ft
Partly cloudy 7500 ft
Mostly cloudy 12000 ft
2014/08/02 02:00 KCGS 020200Z AUTO 00000KT 10SM SCT050 SCT075 BKN120 22/18 A3017 RMK AO1
KGAI - Gaithersburg, Maryland, USA
Distance from station: WSW 40mi, 65km
Updated: Fri, 01-Aug-2014 10:15pm EDT
Few Clouds
Few Clouds
 Wind from ESE
Wind: ESE 3 mph , 6 km/h
Temperature: 70°F , 21°C
Dew Point: 63°F , 17°C
Humidity: 78%
Barometer: 30.21 inHg , 1023 hPa
Clouds: Few Clouds
Visibility: 10 miles , 16 km
Cloud details: Few Clouds 1700 ft
2014/08/02 02:15 KGAI 020215Z AUTO 11003KT 10SM FEW017 21/17 A3021 RMK AO1
 
KTHV - York, Pennsylvania, USA
Distance from station: NNW 40mi, 65km
Updated: Fri, 01-Aug-2014 9:53pm EDT
Overcast
Overcast
 Wind from SE
Wind: SE 6 mph , 9 km/h
Temperature: 72°F , 22°C
Dew Point: 66°F , 19°C
Humidity: 83%
Barometer: 30.19 inHg , 1022.4 hPa
Clouds: Overcast
Visibility: 10 miles , 16 km
Cloud details: Overcast 10000 ft
2014/08/02 01:53 KTHV 020153Z AUTO 14005KT 10SM OVC100 22/19 A3019 RMK AO2 SLP220 T02170194
KFDK - Frederick, Maryland, USA
Distance from station: W 47mi, 75km
Updated: Fri, 01-Aug-2014 10:00pm EDT
Overcast
Overcast
 Wind from E
Wind: E 3 mph , 6 km/h
Temperature: 70°F , 21°C
Dew Point: 70°F , 21°C
Humidity: 100%
Barometer: 30.20 inHg , 1022.7 hPa
Clouds: Overcast
Visibility: 10 miles , 16 km
Cloud details: Partly cloudy 4000 ft
Partly cloudy 5000 ft
Overcast 9500 ft
2014/08/02 02:00 KFDK 020200Z AUTO 10003KT 10SM SCT040 SCT050 OVC095 21/21 A3020 RMK AO2
 
KESN - Easton/Newnam, Maryland, USA
Distance from station: SSE 48mi, 78km
Updated: Fri, 01-Aug-2014 8:50pm EDT
NOT Current
Overcast
Overcast
 Wind from calm
Wind: Calm
Temperature: 73°F , 23°C
Dew Point: 73°F , 23°C
Humidity: 100%
Barometer: 30.20 inHg , 1022.7 hPa
Clouds: Overcast
Visibility: 7 miles , 11 km
Cloud details: Overcast 10000 ft
2014/08/02 00:50 KESN 020050Z 00000KT 7SM OVC100 23/23 A3020
KDCA - Washington/Natl, Washington D.c., USA
Distance from station: SW 49mi, 79km
Updated: Fri, 01-Aug-2014 9:52pm EDT
Mostly cloudy
Mostly cloudy
 Wind from SSE
Wind: SSE 9 mph , 15 km/h
Temperature: 75°F , 24°C
Dew Point: 64°F , 18°C
Humidity: 69%
Barometer: 30.18 inHg , 1022 hPa
Clouds: Mostly cloudy
Visibility: 10 miles , 16 km
Cloud details: Partly cloudy 2100 ft
Partly cloudy 12000 ft
Mostly cloudy 20000 ft
2014/08/02 01:52 KDCA 020152Z 15008KT 10SM SCT021 SCT120 BKN200 24/18 A3018 RMK AO2 SLP220 T02440178
 
KLNS - Lancaster, Pennsylvania, USA
Distance from station: N 49mi, 79km
Updated: Fri, 01-Aug-2014 9:53pm EDT
Mist, Clear
Mist, Clear
 Wind from ENE
Wind: ENE 3 mph , 6 km/h
Temperature: 68°F , 20°C
Dew Point: 66°F , 19°C
Humidity: 94%
Barometer: 30.20 inHg , 1022.7 hPa
Summary: Mist
Clouds: Clear
Visibility: 5 miles , 8 km
2014/08/02 01:53 KLNS 020153Z 06003KT 5SM BR CLR 20/19 A3020 RMK AO2 SLP223 T02000189
KILG - Wilmington, Delaware, USA
Distance from station: ENE 50mi, 81km
Updated: Fri, 01-Aug-2014 9:51pm EDT
Overcast
Overcast
 Wind from E
Wind: E 3 mph , 6 km/h
Temperature: 72°F , 22°C
Dew Point: 70°F , 21°C
Humidity: 94%
Barometer: 30.20 inHg , 1022.7 hPa
Clouds: Overcast
Visibility: 10 miles , 16 km
Cloud details: Overcast 11000 ft
2014/08/02 01:51 KILG 020151Z AUTO 09003KT 10SM OVC110 22/21 A3020 RMK AO2 SLP225 T02220206